sensor_id;sensor_type;location;lat;lon;timestamp;temperature;humidity
12329;DHT22;6230;52.390;10.256;2023-03-14T00:00:54;14.20;69.80
12329;DHT22;6230;52.390;10.256;2023-03-14T00:03:19;14.30;69.90
12329;DHT22;6230;52.390;10.256;2023-03-14T00:05:45;14.30;70.00
12329;DHT22;6230;52.390;10.256;2023-03-14T00:08:10;14.30;70.20
12329;DHT22;6230;52.390;10.256;2023-03-14T00:10:37;14.30;70.30
12329;DHT22;6230;52.390;10.256;2023-03-14T00:13:03;14.30;70.30
12329;DHT22;6230;52.390;10.256;2023-03-14T00:15:28;14.30;70.40
12329;DHT22;6230;52.390;10.256;2023-03-14T00:17:54;14.40;70.40
12329;DHT22;6230;52.390;10.256;2023-03-14T00:20:20;14.40;70.40
12329;DHT22;6230;52.390;10.256;2023-03-14T00:22:45;14.40;70.50
12329;DHT22;6230;52.390;10.256;2023-03-14T00:25:11;14.40;70.50
12329;DHT22;6230;52.390;10.256;2023-03-14T00:27:37;14.40;70.60
12329;DHT22;6230;52.390;10.256;2023-03-14T00:30:04;14.30;70.70
12329;DHT22;6230;52.390;10.256;2023-03-14T00:32:30;14.30;70.90
12329;DHT22;6230;52.390;10.256;2023-03-14T00:34:56;14.30;71.00
12329;DHT22;6230;52.390;10.256;2023-03-14T00:37:22;14.30;71.10
12329;DHT22;6230;52.390;10.256;2023-03-14T00:39:47;14.30;71.30
12329;DHT22;6230;52.390;10.256;2023-03-14T00:42:13;14.30;71.30
12329;DHT22;6230;52.390;10.256;2023-03-14T00:44:39;14.30;71.40
12329;DHT22;6230;52.390;10.256;2023-03-14T00:47:04;14.30;71.40
12329;DHT22;6230;52.390;10.256;2023-03-14T00:49:30;14.30;71.50
12329;DHT22;6230;52.390;10.256;2023-03-14T00:51:55;14.30;71.50
12329;DHT22;6230;52.390;10.256;2023-03-14T00:54:21;14.30;71.60
12329;DHT22;6230;52.390;10.256;2023-03-14T00:56:47;14.30;71.60
12329;DHT22;6230;52.390;10.256;2023-03-14T00:59:12;14.30;71.70
12329;DHT22;6230;52.390;10.256;2023-03-14T01:01:39;14.30;71.80
12329;DHT22;6230;52.390;10.256;2023-03-14T01:04:04;14.30;72.00
12329;DHT22;6230;52.390;10.256;2023-03-14T01:06:30;14.30;71.90
12329;DHT22;6230;52.390;10.256;2023-03-14T01:08:57;14.30;72.00
12329;DHT22;6230;52.390;10.256;2023-03-14T01:11:26;14.20;72.10
12329;DHT22;6230;52.390;10.256;2023-03-14T01:13:52;14.30;72.20
12329;DHT22;6230;52.390;10.256;2023-03-14T01:16:20;14.30;72.10
12329;DHT22;6230;52.390;10.256;2023-03-14T01:18:46;14.20;72.00
12329;DHT22;6230;52.390;10.256;2023-03-14T01:21:26;14.30;72.00
12329;DHT22;6230;52.390;10.256;2023-03-14T01:23:54;14.30;72.10
12329;DHT22;6230;52.390;10.256;2023-03-14T01:26:22;14.30;71.90
12329;DHT22;6230;52.390;10.256;2023-03-14T01:28:49;14.30;71.80
12329;DHT22;6230;52.390;10.256;2023-03-14T01:31:15;14.30;71.80
12329;DHT22;6230;52.390;10.256;2023-03-14T01:33:41;14.20;71.60
12329;DHT22;6230;52.390;10.256;2023-03-14T01:36:08;14.30;71.60
12329;DHT22;6230;52.390;10.256;2023-03-14T01:38:34;14.30;71.50
12329;DHT22;6230;52.390;10.256;2023-03-14T01:41:01;14.30;71.40
12329;DHT22;6230;52.390;10.256;2023-03-14T01:43:27;14.20;71.20
12329;DHT22;6230;52.390;10.256;2023-03-14T01:51:14;14.20;71.10
12329;DHT22;6230;52.390;10.256;2023-03-14T01:53:42;14.20;71.10
12329;DHT22;6230;52.390;10.256;2023-03-14T01:56:10;14.20;71.00
12329;DHT22;6230;52.390;10.256;2023-03-14T01:58:37;14.20;71.10
12329;DHT22;6230;52.390;10.256;2023-03-14T02:01:04;14.10;70.90
12329;DHT22;6230;52.390;10.256;2023-03-14T02:03:34;14.10;71.00
12329;DHT22;6230;52.390;10.256;2023-03-14T02:06:04;14.10;71.10
12329;DHT22;6230;52.390;10.256;2023-03-14T02:08:31;14.10;71.10
12329;DHT22;6230;52.390;10.256;2023-03-14T02:10:58;14.10;71.20
12329;DHT22;6230;52.390;10.256;2023-03-14T02:13:24;14.10;71.20
12329;DHT22;6230;52.390;10.256;2023-03-14T02:15:50;14.00;71.10
12329;DHT22;6230;52.390;10.256;2023-03-14T02:18:16;14.00;71.20
12329;DHT22;6230;52.390;10.256;2023-03-14T02:20:51;14.00;71.30
12329;DHT22;6230;52.390;10.256;2023-03-14T02:23:51;14.00;71.30
12329;DHT22;6230;52.390;10.256;2023-03-14T02:26:30;14.00;71.30
12329;DHT22;6230;52.390;10.256;2023-03-14T02:28:57;14.00;71.30
12329;DHT22;6230;52.390;10.256;2023-03-14T02:31:23;14.00;71.30
12329;DHT22;6230;52.390;10.256;2023-03-14T02:33:49;14.00;71.30
12329;DHT22;6230;52.390;10.256;2023-03-14T02:36:15;14.00;71.30
12329;DHT22;6230;52.390;10.256;2023-03-14T02:41:11;14.00;71.20
12329;DHT22;6230;52.390;10.256;2023-03-14T02:43:36;14.00;71.20
12329;DHT22;6230;52.390;10.256;2023-03-14T02:46:03;14.00;71.10
12329;DHT22;6230;52.390;10.256;2023-03-14T02:48:35;14.00;71.10
12329;DHT22;6230;52.390;10.256;2023-03-14T02:51:02;14.00;71.10
12329;DHT22;6230;52.390;10.256;2023-03-14T02:53:30;13.90;71.00
12329;DHT22;6230;52.390;10.256;2023-03-14T02:55:56;13.90;70.90
12329;DHT22;6230;52.390;10.256;2023-03-14T02:58:22;13.90;70.90
12329;DHT22;6230;52.390;10.256;2023-03-14T03:00:48;13.90;70.80
12329;DHT22;6230;52.390;10.256;2023-03-14T03:03:13;13.90;70.80
12329;DHT22;6230;52.390;10.256;2023-03-14T03:05:39;13.90;70.70
12329;DHT22;6230;52.390;10.256;2023-03-14T03:08:05;13.90;70.70
12329;DHT22;6230;52.390;10.256;2023-03-14T03:10:31;13.90;70.70
12329;DHT22;6230;52.390;10.256;2023-03-14T03:12:57;13.80;70.60
12329;DHT22;6230;52.390;10.256;2023-03-14T03:15:23;13.80;70.50
12329;DHT22;6230;52.390;10.256;2023-03-14T03:17:48;13.80;70.50
12329;DHT22;6230;52.390;10.256;2023-03-14T03:20:14;13.80;70.50
12329;DHT22;6230;52.390;10.256;2023-03-14T03:22:40;13.80;70.40
12329;DHT22;6230;52.390;10.256;2023-03-14T03:25:06;13.80;71.20
12329;DHT22;6230;52.390;10.256;2023-03-14T03:27:34;13.70;70.30
12329;DHT22;6230;52.390;10.256;2023-03-14T03:30:00;13.70;70.30
12329;DHT22;6230;52.390;10.256;2023-03-14T03:32:27;13.70;70.30
12329;DHT22;6230;52.390;10.256;2023-03-14T03:34:53;13.80;70.30
12329;DHT22;6230;52.390;10.256;2023-03-14T03:37:18;13.70;70.20
12329;DHT22;6230;52.390;10.256;2023-03-14T03:39:44;13.70;70.20
12329;DHT22;6230;52.390;10.256;2023-03-14T03:42:10;13.70;70.10
12329;DHT22;6230;52.390;10.256;2023-03-14T03:44:36;13.80;70.00
12329;DHT22;6230;52.390;10.256;2023-03-14T03:47:01;13.70;70.00
12329;DHT22;6230;52.390;10.256;2023-03-14T03:49:31;13.70;69.90
12329;DHT22;6230;52.390;10.256;2023-03-14T03:51:57;13.70;69.80
12329;DHT22;6230;52.390;10.256;2023-03-14T03:54:22;13.70;69.80
12329;DHT22;6230;52.390;10.256;2023-03-14T03:56:48;13.60;69.60
12329;DHT22;6230;52.390;10.256;2023-03-14T03:59:14;13.60;69.60
12329;DHT22;6230;52.390;10.256;2023-03-14T04:01:40;13.60;69.60
12329;DHT22;6230;52.390;10.256;2023-03-14T04:04:05;13.50;69.50
12329;DHT22;6230;52.390;10.256;2023-03-14T04:06:31;13.60;69.50
12329;DHT22;6230;52.390;10.256;2023-03-14T04:08:57;13.60;69.50
12329;DHT22;6230;52.390;10.256;2023-03-14T04:11:22;13.50;69.40
12329;DHT22;6230;52.390;10.256;2023-03-14T04:13:48;13.50;69.50
12329;DHT22;6230;52.390;10.256;2023-03-14T04:16:17;13.50;69.50
12329;DHT22;6230;52.390;10.256;2023-03-14T04:18:42;13.50;69.50
12329;DHT22;6230;52.390;10.256;2023-03-14T04:21:08;13.50;69.60
12329;DHT22;6230;52.390;10.256;2023-03-14T04:23:34;13.50;69.70
12329;DHT22;6230;52.390;10.256;2023-03-14T04:25:59;13.50;69.80
12329;DHT22;6230;52.390;10.256;2023-03-14T04:28:25;13.50;70.00
12329;DHT22;6230;52.390;10.256;2023-03-14T04:30:50;13.50;70.20
12329;DHT22;6230;52.390;10.256;2023-03-14T04:33:16;13.50;70.40
12329;DHT22;6230;52.390;10.256;2023-03-14T04:35:46;13.50;70.60
12329;DHT22;6230;52.390;10.256;2023-03-14T04:38:12;13.50;70.70
12329;DHT22;6230;52.390;10.256;2023-03-14T04:40:39;13.50;70.70
12329;DHT22;6230;52.390;10.256;2023-03-14T04:43:05;13.40;70.60
12329;DHT22;6230;52.390;10.256;2023-03-14T04:45:31;13.40;70.80
12329;DHT22;6230;52.390;10.256;2023-03-14T04:47:56;13.30;70.90
12329;DHT22;6230;52.390;10.256;2023-03-14T04:50:22;13.30;71.00
12329;DHT22;6230;52.390;10.256;2023-03-14T04:52:48;13.30;71.10
12329;DHT22;6230;52.390;10.256;2023-03-14T04:55:13;13.20;71.00
12329;DHT22;6230;52.390;10.256;2023-03-14T04:57:39;13.10;70.90
12329;DHT22;6230;52.390;10.256;2023-03-14T05:00:05;13.10;70.70
12329;DHT22;6230;52.390;10.256;2023-03-14T05:02:34;13.10;70.70
12329;DHT22;6230;52.390;10.256;2023-03-14T05:05:00;13.00;70.40
12329;DHT22;6230;52.390;10.256;2023-03-14T05:07:25;12.90;70.30
12329;DHT22;6230;52.390;10.256;2023-03-14T05:09:51;12.90;70.20
12329;DHT22;6230;52.390;10.256;2023-03-14T05:12:18;12.90;70.10
12329;DHT22;6230;52.390;10.256;2023-03-14T05:14:44;12.90;70.10
12329;DHT22;6230;52.390;10.256;2023-03-14T05:17:10;12.80;70.00
12329;DHT22;6230;52.390;10.256;2023-03-14T05:19:35;12.80;70.80
12329;DHT22;6230;52.390;10.256;2023-03-14T05:22:01;12.80;70.00
12329;DHT22;6230;52.390;10.256;2023-03-14T05:24:26;12.70;69.90
12329;DHT22;6230;52.390;10.256;2023-03-14T05:26:53;12.70;69.90
12329;DHT22;6230;52.390;10.256;2023-03-14T05:29:18;12.70;69.90
12329;DHT22;6230;52.390;10.256;2023-03-14T05:31:44;12.70;70.00
12329;DHT22;6230;52.390;10.256;2023-03-14T05:34:09;12.70;69.90
12329;DHT22;6230;52.390;10.256;2023-03-14T05:36:35;12.70;70.00
12329;DHT22;6230;52.390;10.256;2023-03-14T05:39:00;12.70;70.00
12329;DHT22;6230;52.390;10.256;2023-03-14T05:41:26;12.60;70.00
12329;DHT22;6230;52.390;10.256;2023-03-14T05:43:51;12.70;70.10
12329;DHT22;6230;52.390;10.256;2023-03-14T05:46:17;12.60;70.20
12329;DHT22;6230;52.390;10.256;2023-03-14T05:48:42;12.60;70.10
12329;DHT22;6230;52.390;10.256;2023-03-14T05:51:08;12.60;70.20
12329;DHT22;6230;52.390;10.256;2023-03-14T05:53:33;12.60;70.20
12329;DHT22;6230;52.390;10.256;2023-03-14T05:55:59;12.60;70.30
12329;DHT22;6230;52.390;10.256;2023-03-14T05:58:24;12.60;70.40
12329;DHT22;6230;52.390;10.256;2023-03-14T06:00:50;12.60;70.50
12329;DHT22;6230;52.390;10.256;2023-03-14T06:03:16;12.60;70.50
12329;DHT22;6230;52.390;10.256;2023-03-14T06:05:42;12.60;70.60
12329;DHT22;6230;52.390;10.256;2023-03-14T06:08:07;12.60;70.60
12329;DHT22;6230;52.390;10.256;2023-03-14T06:10:35;12.60;70.70
12329;DHT22;6230;52.390;10.256;2023-03-14T06:13:01;12.60;70.70
12329;DHT22;6230;52.390;10.256;2023-03-14T06:15:26;12.60;70.80
12329;DHT22;6230;52.390;10.256;2023-03-14T06:17:54;12.60;70.80
12329;DHT22;6230;52.390;10.256;2023-03-14T06:20:20;12.60;70.80
12329;DHT22;6230;52.390;10.256;2023-03-14T06:22:45;12.60;70.80
12329;DHT22;6230;52.390;10.256;2023-03-14T06:25:11;12.70;70.90
12329;DHT22;6230;52.390;10.256;2023-03-14T06:27:37;12.70;70.90
12329;DHT22;6230;52.390;10.256;2023-03-14T06:30:02;12.70;70.90
12329;DHT22;6230;52.390;10.256;2023-03-14T06:32:28;12.70;70.90
12329;DHT22;6230;52.390;10.256;2023-03-14T06:34:54;12.70;70.90
12329;DHT22;6230;52.390;10.256;2023-03-14T06:37:19;12.70;70.90
12329;DHT22;6230;52.390;10.256;2023-03-14T06:39:45;12.80;70.90
12329;DHT22;6230;52.390;10.256;2023-03-14T06:42:10;12.80;71.00
12329;DHT22;6230;52.390;10.256;2023-03-14T06:44:36;12.80;71.00
12329;DHT22;6230;52.390;10.256;2023-03-14T06:47:02;12.80;70.90
12329;DHT22;6230;52.390;10.256;2023-03-14T06:49:27;12.90;70.90
12329;DHT22;6230;52.390;10.256;2023-03-14T06:51:53;12.90;70.90
12329;DHT22;6230;52.390;10.256;2023-03-14T06:54:18;12.90;70.90
12329;DHT22;6230;52.390;10.256;2023-03-14T06:56:44;12.90;70.80
12329;DHT22;6230;52.390;10.256;2023-03-14T06:59:09;12.90;70.70
12329;DHT22;6230;52.390;10.256;2023-03-14T07:01:35;13.00;70.80
12329;DHT22;6230;52.390;10.256;2023-03-14T07:04:01;13.00;70.70
12329;DHT22;6230;52.390;10.256;2023-03-14T07:06:27;13.00;70.60
12329;DHT22;6230;52.390;10.256;2023-03-14T07:08:54;13.00;70.50
12329;DHT22;6230;52.390;10.256;2023-03-14T07:11:21;13.10;70.60
12329;DHT22;6230;52.390;10.256;2023-03-14T07:13:46;13.10;70.60
12329;DHT22;6230;52.390;10.256;2023-03-14T07:16:12;13.10;70.50
12329;DHT22;6230;52.390;10.256;2023-03-14T07:18:37;13.20;70.50
12329;DHT22;6230;52.390;10.256;2023-03-14T07:21:04;13.20;70.50
12329;DHT22;6230;52.390;10.256;2023-03-14T07:23:30;13.20;70.30
12329;DHT22;6230;52.390;10.256;2023-03-14T07:25:56;13.20;70.30
12329;DHT22;6230;52.390;10.256;2023-03-14T07:28:22;13.20;70.30
12329;DHT22;6230;52.390;10.256;2023-03-14T07:30:48;13.30;70.30
12329;DHT22;6230;52.390;10.256;2023-03-14T07:33:15;13.30;70.20
12329;DHT22;6230;52.390;10.256;2023-03-14T07:35:40;13.30;70.20
12329;DHT22;6230;52.390;10.256;2023-03-14T07:38:06;13.30;70.20
12329;DHT22;6230;52.390;10.256;2023-03-14T07:40:32;13.30;70.30
12329;DHT22;6230;52.390;10.256;2023-03-14T07:42:57;13.30;70.40
12329;DHT22;6230;52.390;10.256;2023-03-14T07:45:23;13.20;70.70
12329;DHT22;6230;52.390;10.256;2023-03-14T07:47:48;13.20;71.00
12329;DHT22;6230;52.390;10.256;2023-03-14T07:50:14;13.20;71.30
12329;DHT22;6230;52.390;10.256;2023-03-14T07:52:39;13.10;71.50
12329;DHT22;6230;52.390;10.256;2023-03-14T07:55:05;13.10;71.70
12329;DHT22;6230;52.390;10.256;2023-03-14T07:57:31;13.10;71.80
12329;DHT22;6230;52.390;10.256;2023-03-14T07:59:56;13.10;71.90
12329;DHT22;6230;52.390;10.256;2023-03-14T08:02:22;13.10;72.10
12329;DHT22;6230;52.390;10.256;2023-03-14T08:04:49;13.10;72.20
12329;DHT22;6230;52.390;10.256;2023-03-14T08:07:14;13.10;72.30
12329;DHT22;6230;52.390;10.256;2023-03-14T08:09:40;13.20;72.30
12329;DHT22;6230;52.390;10.256;2023-03-14T08:12:07;13.10;72.20
12329;DHT22;6230;52.390;10.256;2023-03-14T08:14:33;13.20;72.30
12329;DHT22;6230;52.390;10.256;2023-03-14T08:16:58;13.20;72.30
12329;DHT22;6230;52.390;10.256;2023-03-14T08:19:24;13.20;72.30
12329;DHT22;6230;52.390;10.256;2023-03-14T08:21:50;13.30;72.20
12329;DHT22;6230;52.390;10.256;2023-03-14T08:24:16;13.30;72.20
12329;DHT22;6230;52.390;10.256;2023-03-14T08:26:42;13.30;72.20
12329;DHT22;6230;52.390;10.256;2023-03-14T08:29:07;13.30;72.10
12329;DHT22;6230;52.390;10.256;2023-03-14T08:31:34;13.40;72.10
12329;DHT22;6230;52.390;10.256;2023-03-14T08:34:00;13.40;72.10
12329;DHT22;6230;52.390;10.256;2023-03-14T08:36:25;13.40;72.10
12329;DHT22;6230;52.390;10.256;2023-03-14T08:38:51;13.40;72.00
12329;DHT22;6230;52.390;10.256;2023-03-14T08:41:17;13.40;72.00
12329;DHT22;6230;52.390;10.256;2023-03-14T08:43:42;13.40;72.10
12329;DHT22;6230;52.390;10.256;2023-03-14T08:46:08;13.40;72.20
12329;DHT22;6230;52.390;10.256;2023-03-14T08:48:33;13.40;72.40
12329;DHT22;6230;52.390;10.256;2023-03-14T08:51:10;13.40;72.50
12329;DHT22;6230;52.390;10.256;2023-03-14T08:53:36;13.30;72.70
12329;DHT22;6230;52.390;10.256;2023-03-14T08:56:02;13.30;72.70
12329;DHT22;6230;52.390;10.256;2023-03-14T08:58:29;13.30;72.90
12329;DHT22;6230;52.390;10.256;2023-03-14T09:00:54;13.30;73.10
12329;DHT22;6230;52.390;10.256;2023-03-14T09:03:20;13.30;73.30
12329;DHT22;6230;52.390;10.256;2023-03-14T09:05:48;13.30;73.40
12329;DHT22;6230;52.390;10.256;2023-03-14T09:08:14;13.40;73.60
12329;DHT22;6230;52.390;10.256;2023-03-14T09:10:40;13.40;74.00
12329;DHT22;6230;52.390;10.256;2023-03-14T09:13:05;13.40;74.30
12329;DHT22;6230;52.390;10.256;2023-03-14T09:15:31;13.50;74.30
12329;DHT22;6230;52.390;10.256;2023-03-14T09:17:56;13.50;74.20
12329;DHT22;6230;52.390;10.256;2023-03-14T09:20:22;13.50;74.20
12329;DHT22;6230;52.390;10.256;2023-03-14T09:22:48;13.60;74.30
12329;DHT22;6230;52.390;10.256;2023-03-14T09:25:13;13.60;74.30
12329;DHT22;6230;52.390;10.256;2023-03-14T09:27:39;13.60;74.30
12329;DHT22;6230;52.390;10.256;2023-03-14T09:30:05;13.70;74.30
12329;DHT22;6230;52.390;10.256;2023-03-14T09:32:31;13.70;74.40
12329;DHT22;6230;52.390;10.256;2023-03-14T09:34:57;13.70;74.40
12329;DHT22;6230;52.390;10.256;2023-03-14T09:37:22;13.80;74.50
12329;DHT22;6230;52.390;10.256;2023-03-14T09:39:48;13.90;74.40
12329;DHT22;6230;52.390;10.256;2023-03-14T09:42:17;13.90;74.20
12329;DHT22;6230;52.390;10.256;2023-03-14T09:45:04;14.00;74.10
12329;DHT22;6230;52.390;10.256;2023-03-14T09:47:34;14.00;74.90
12329;DHT22;6230;52.390;10.256;2023-03-14T09:50:00;14.00;73.90
12329;DHT22;6230;52.390;10.256;2023-03-14T09:52:35;14.10;73.70
12329;DHT22;6230;52.390;10.256;2023-03-14T09:55:11;14.10;73.50
12329;DHT22;6230;52.390;10.256;2023-03-14T09:57:39;14.10;73.40
12329;DHT22;6230;52.390;10.256;2023-03-14T10:00:17;14.20;73.40
12329;DHT22;6230;52.390;10.256;2023-03-14T10:02:50;14.20;73.00
12329;DHT22;6230;52.390;10.256;2023-03-14T10:05:19;14.20;73.00
12329;DHT22;6230;52.390;10.256;2023-03-14T10:07:45;14.20;72.80
12329;DHT22;6230;52.390;10.256;2023-03-14T10:10:15;14.20;72.60
12329;DHT22;6230;52.390;10.256;2023-03-14T10:12:47;14.20;72.60
12329;DHT22;6230;52.390;10.256;2023-03-14T10:15:15;14.20;72.60
12329;DHT22;6230;52.390;10.256;2023-03-14T10:17:48;14.20;72.70
12329;DHT22;6230;52.390;10.256;2023-03-14T10:20:34;14.10;72.70
12329;DHT22;6230;52.390;10.256;2023-03-14T10:23:02;14.10;73.10
12329;DHT22;6230;52.390;10.256;2023-03-14T10:25:31;14.00;73.00
12329;DHT22;6230;52.390;10.256;2023-03-14T10:27:58;14.00;73.20
12329;DHT22;6230;52.390;10.256;2023-03-14T10:30:45;14.00;73.50
12329;DHT22;6230;52.390;10.256;2023-03-14T10:33:26;14.10;74.10
12329;DHT22;6230;52.390;10.256;2023-03-14T10:35:57;14.20;74.10
12329;DHT22;6230;52.390;10.256;2023-03-14T10:38:27;14.40;74.00
12329;DHT22;6230;52.390;10.256;2023-03-14T10:40:54;14.60;73.70
12329;DHT22;6230;52.390;10.256;2023-03-14T10:43:24;14.70;73.50
12329;DHT22;6230;52.390;10.256;2023-03-14T10:45:57;14.90;73.10
12329;DHT22;6230;52.390;10.256;2023-03-14T10:48:24;15.00;72.80
12329;DHT22;6230;52.390;10.256;2023-03-14T10:53:33;15.10;71.90
12329;DHT22;6230;52.390;10.256;2023-03-14T10:56:02;15.10;71.80
12329;DHT22;6230;52.390;10.256;2023-03-14T10:58:35;15.00;71.60
12329;DHT22;6230;52.390;10.256;2023-03-14T11:03:51;15.00;71.50
12329;DHT22;6230;52.390;10.256;2023-03-14T11:06:36;15.00;71.50
12329;DHT22;6230;52.390;10.256;2023-03-14T11:17:50;14.90;71.20
12329;DHT22;6230;52.390;10.256;2023-03-14T11:20:38;15.00;71.30
12329;DHT22;6230;52.390;10.256;2023-03-14T11:28:29;15.10;70.70
12329;DHT22;6230;52.390;10.256;2023-03-14T11:39:22;15.00;70.10
12329;DHT22;6230;52.390;10.256;2023-03-14T11:41:52;15.00;69.90
12329;DHT22;6230;52.390;10.256;2023-03-14T11:44:22;15.00;69.90
12329;DHT22;6230;52.390;10.256;2023-03-14T11:46:59;15.00;69.80
12329;DHT22;6230;52.390;10.256;2023-03-14T11:49:43;15.00;69.80
12329;DHT22;6230;52.390;10.256;2023-03-14T11:54:55;15.00;69.90
12329;DHT22;6230;52.390;10.256;2023-03-14T11:57:22;14.90;69.80
12329;DHT22;6230;52.390;10.256;2023-03-14T12:00:40;14.70;68.70
12329;DHT22;6230;52.390;10.256;2023-03-14T12:03:17;14.30;68.40
12329;DHT22;6230;52.390;10.256;2023-03-14T12:09:07;13.50;69.20
12329;DHT22;6230;52.390;10.256;2023-03-14T12:11:51;13.30;69.50
12329;DHT22;6230;52.390;10.256;2023-03-14T12:14:23;13.00;69.90
12329;DHT22;6230;52.390;10.256;2023-03-14T12:16:50;12.90;70.10
12329;DHT22;6230;52.390;10.256;2023-03-14T12:21:54;12.50;70.30
12329;DHT22;6230;52.390;10.256;2023-03-14T12:24:26;12.40;70.60
12329;DHT22;6230;52.390;10.256;2023-03-14T12:26:56;12.20;70.70
12329;DHT22;6230;52.390;10.256;2023-03-14T12:29:23;12.10;70.90
12329;DHT22;6230;52.390;10.256;2023-03-14T12:32:05;12.00;71.70
12329;DHT22;6230;52.390;10.256;2023-03-14T12:34:40;11.90;70.80
12329;DHT22;6230;52.390;10.256;2023-03-14T12:44:47;11.30;70.60
12329;DHT22;6230;52.390;10.256;2023-03-14T12:49:48;11.10;70.60
12329;DHT22;6230;52.390;10.256;2023-03-14T12:52:37;11.00;70.50
12329;DHT22;6230;52.390;10.256;2023-03-14T12:57:54;10.80;70.50
12329;DHT22;6230;52.390;10.256;2023-03-14T13:00:31;10.70;70.50
12329;DHT22;6230;52.390;10.256;2023-03-14T13:03:22;10.60;70.60
12329;DHT22;6230;52.390;10.256;2023-03-14T13:06:00;10.50;70.80
12329;DHT22;6230;52.390;10.256;2023-03-14T13:11:12;10.30;70.70
12329;DHT22;6230;52.390;10.256;2023-03-14T13:13:44;10.30;70.70
12329;DHT22;6230;52.390;10.256;2023-03-14T13:16:23;10.20;70.60
12329;DHT22;6230;52.390;10.256;2023-03-14T13:18:52;10.10;70.90
12329;DHT22;6230;52.390;10.256;2023-03-14T13:21:25;10.10;70.90
12329;DHT22;6230;52.390;10.256;2023-03-14T13:24:03;10.00;70.70
12329;DHT22;6230;52.390;10.256;2023-03-14T13:26:40;10.00;70.80
12329;DHT22;6230;52.390;10.256;2023-03-14T13:31:46;9.90;70.90
12329;DHT22;6230;52.390;10.256;2023-03-14T13:34:12;9.80;70.90
12329;DHT22;6230;52.390;10.256;2023-03-14T13:36:38;9.80;70.90
12329;DHT22;6230;52.390;10.256;2023-03-14T13:39:09;9.70;70.80
12329;DHT22;6230;52.390;10.256;2023-03-14T13:41:38;9.70;70.90
12329;DHT22;6230;52.390;10.256;2023-03-14T13:44:07;9.70;71.10
12329;DHT22;6230;52.390;10.256;2023-03-14T13:46:35;9.70;71.30
12329;DHT22;6230;52.390;10.256;2023-03-14T13:49:09;9.70;71.00
12329;DHT22;6230;52.390;10.256;2023-03-14T13:51:38;9.70;71.00
12329;DHT22;6230;52.390;10.256;2023-03-14T13:54:13;9.80;71.10
12329;DHT22;6230;52.390;10.256;2023-03-14T13:56:39;9.80;71.00
12329;DHT22;6230;52.390;10.256;2023-03-14T13:59:24;9.80;70.80
12329;DHT22;6230;52.390;10.256;2023-03-14T14:01:50;9.90;70.90
12329;DHT22;6230;52.390;10.256;2023-03-14T14:04:19;9.90;70.80
12329;DHT22;6230;52.390;10.256;2023-03-14T14:06:57;10.00;70.70
12329;DHT22;6230;52.390;10.256;2023-03-14T14:09:29;10.00;70.50
12329;DHT22;6230;52.390;10.256;2023-03-14T14:12:00;10.00;70.30
12329;DHT22;6230;52.390;10.256;2023-03-14T14:16:57;9.90;70.20
12329;DHT22;6230;52.390;10.256;2023-03-14T14:19:25;10.00;70.30
12329;DHT22;6230;52.390;10.256;2023-03-14T14:21:53;9.90;70.10
12329;DHT22;6230;52.390;10.256;2023-03-14T14:24:21;9.90;70.20
12329;DHT22;6230;52.390;10.256;2023-03-14T14:26:52;9.90;70.10
12329;DHT22;6230;52.390;10.256;2023-03-14T14:29:36;10.00;70.20
12329;DHT22;6230;52.390;10.256;2023-03-14T14:34:43;10.00;70.10
12329;DHT22;6230;52.390;10.256;2023-03-14T14:37:24;10.00;70.00
12329;DHT22;6230;52.390;10.256;2023-03-14T14:39:52;9.90;70.00
12329;DHT22;6230;52.390;10.256;2023-03-14T14:42:25;9.90;70.10
12329;DHT22;6230;52.390;10.256;2023-03-14T14:44:51;9.90;70.30
12329;DHT22;6230;52.390;10.256;2023-03-14T14:47:23;9.90;70.30
12329;DHT22;6230;52.390;10.256;2023-03-14T14:49:50;9.90;70.10
12329;DHT22;6230;52.390;10.256;2023-03-14T14:55:20;9.90;70.00
12329;DHT22;6230;52.390;10.256;2023-03-14T14:57:54;9.90;69.90
12329;DHT22;6230;52.390;10.256;2023-03-14T15:00:23;10.00;69.80
12329;DHT22;6230;52.390;10.256;2023-03-14T15:02:54;10.00;69.80
12329;DHT22;6230;52.390;10.256;2023-03-14T15:05:25;10.00;69.60
12329;DHT22;6230;52.390;10.256;2023-03-14T15:07:51;10.00;69.60
12329;DHT22;6230;52.390;10.256;2023-03-14T15:10:22;10.00;69.40
12329;DHT22;6230;52.390;10.256;2023-03-14T15:12:48;10.00;69.40
12329;DHT22;6230;52.390;10.256;2023-03-14T15:15:15;10.00;69.30
12329;DHT22;6230;52.390;10.256;2023-03-14T15:17:41;10.00;69.30
12329;DHT22;6230;52.390;10.256;2023-03-14T15:20:11;10.00;69.20
12329;DHT22;6230;52.390;10.256;2023-03-14T15:22:38;10.00;69.00
12329;DHT22;6230;52.390;10.256;2023-03-14T15:25:04;10.00;68.90
12329;DHT22;6230;52.390;10.256;2023-03-14T15:27:31;10.00;68.80
12329;DHT22;6230;52.390;10.256;2023-03-14T15:29:57;10.00;68.40
12329;DHT22;6230;52.390;10.256;2023-03-14T15:32:24;10.00;68.10
12329;DHT22;6230;52.390;10.256;2023-03-14T15:34:53;10.00;67.80
12329;DHT22;6230;52.390;10.256;2023-03-14T15:37:19;9.90;67.30
12329;DHT22;6230;52.390;10.256;2023-03-14T15:39:45;9.90;67.90
12329;DHT22;6230;52.390;10.256;2023-03-14T15:42:11;9.90;67.00
12329;DHT22;6230;52.390;10.256;2023-03-14T15:44:37;9.90;66.70
12329;DHT22;6230;52.390;10.256;2023-03-14T15:47:04;9.90;66.40
12329;DHT22;6230;52.390;10.256;2023-03-14T15:49:31;9.80;66.10
12329;DHT22;6230;52.390;10.256;2023-03-14T15:51:57;9.80;65.90
12329;DHT22;6230;52.390;10.256;2023-03-14T15:54:22;9.80;65.50
12329;DHT22;6230;52.390;10.256;2023-03-14T15:56:48;9.80;65.10
12329;DHT22;6230;52.390;10.256;2023-03-14T15:59:13;9.80;65.00
12329;DHT22;6230;52.390;10.256;2023-03-14T16:01:39;9.80;64.60
12329;DHT22;6230;52.390;10.256;2023-03-14T16:04:04;9.70;64.20
12329;DHT22;6230;52.390;10.256;2023-03-14T16:06:30;9.70;64.20
12329;DHT22;6230;52.390;10.256;2023-03-14T16:08:56;9.80;64.30
12329;DHT22;6230;52.390;10.256;2023-03-14T16:11:22;9.80;64.30
12329;DHT22;6230;52.390;10.256;2023-03-14T16:13:47;9.80;64.20
12329;DHT22;6230;52.390;10.256;2023-03-14T16:16:13;9.90;63.90
12329;DHT22;6230;52.390;10.256;2023-03-14T16:18:39;9.90;63.60
12329;DHT22;6230;52.390;10.256;2023-03-14T16:21:08;9.90;63.50
12329;DHT22;6230;52.390;10.256;2023-03-14T16:23:35;9.90;63.10
12329;DHT22;6230;52.390;10.256;2023-03-14T16:26:06;9.80;62.70
12329;DHT22;6230;52.390;10.256;2023-03-14T16:28:32;9.80;62.50
12329;DHT22;6230;52.390;10.256;2023-03-14T16:31:09;9.70;62.50
12329;DHT22;6230;52.390;10.256;2023-03-14T16:33:36;9.70;62.30
12329;DHT22;6230;52.390;10.256;2023-03-14T16:36:04;9.70;62.20
12329;DHT22;6230;52.390;10.256;2023-03-14T16:38:35;9.70;62.10
12329;DHT22;6230;52.390;10.256;2023-03-14T16:43:34;9.70;62.00
12329;DHT22;6230;52.390;10.256;2023-03-14T16:46:01;9.70;61.70
12329;DHT22;6230;52.390;10.256;2023-03-14T16:48:28;9.60;61.50
12329;DHT22;6230;52.390;10.256;2023-03-14T16:50:54;9.60;61.30